Time;durP1;ratioP1;P1;durP2;ratioP2;P2;SDS_P1;SDS_P2;PMS_P1;PMS_P2;Temp;Humidity;BMP_temperature;BMP_pressure;BME280_temperature;BME280_humidity;BME280_pressure;Samples;Min_cycle;Max_cycle;Signal;HPM_P1;HPM_P2
2021/12/07 00:01:54;;;;;;;32.15;18.40;;;-0.30;99.90;;;;;;5009246;28;20022;-55
2021/12/07 00:04:20;;;;;;;33.13;19.33;;;-0.20;99.90;;;;;;5019296;28;20030;-54
2021/12/07 00:06:46;;;;;;;33.05;19.27;;;-0.20;99.90;;;;;;5009090;28;20084;-57
2021/12/07 00:09:15;;;;;;;36.70;19.35;;;-0.30;99.90;;;;;;5008617;28;20441;-53
2021/12/07 00:11:41;;;;;;;32.25;18.67;;;-0.30;99.90;;;;;;5009121;28;20053;-50
2021/12/07 00:14:13;;;;;;;32.03;19.63;;;-0.30;99.90;;;;;;5009307;28;20068;-53
2021/12/07 00:16:40;;;;;;;29.40;17.77;;;-0.20;99.90;;;;;;5009167;28;20049;-52
2021/12/07 00:19:06;;;;;;;33.45;18.40;;;-0.30;99.90;;;;;;5008842;28;20124;-48
2021/12/07 00:21:32;;;;;;;37.10;19.70;;;-0.30;99.90;;;;;;5008472;28;20455;-48
2021/12/07 00:23:58;;;;;;;29.33;18.30;;;-0.30;99.90;;;;;;5009044;28;20417;-53
2021/12/07 00:26:23;;;;;;;33.20;18.38;;;-0.30;99.90;;;;;;5009358;28;20025;-52
2021/12/07 00:28:50;;;;;;;35.33;20.10;;;-0.30;99.90;;;;;;5007393;28;20529;-53
2021/12/07 00:31:27;;;;;;;33.72;19.30;;;-0.30;99.90;;;;;;5008665;28;20026;-50
2021/12/07 00:36:34;;;;;;;33.35;18.27;;;-0.30;99.90;;;;;;5008383;28;20414;-51
2021/12/07 00:39:00;;;;;;;35.75;18.90;;;-0.30;99.90;;;;;;5008448;28;20029;-51
2021/12/07 00:41:25;;;;;;;37.10;21.60;;;-0.30;99.90;;;;;;5007607;28;20120;-48
2021/12/07 00:43:51;;;;;;;27.38;16.98;;;-0.30;99.90;;;;;;5008017;28;20068;-53
2021/12/07 00:46:19;;;;;;;33.83;20.05;;;-0.40;99.90;;;;;;5010242;28;20056;-55
2021/12/07 00:48:44;;;;;;;32.40;18.70;;;-0.30;99.90;;;;;;5007612;28;20037;-50
2021/12/07 00:51:10;;;;;;;32.03;19.08;;;-0.30;99.90;;;;;;5007348;28;20240;-50
2021/12/07 00:53:36;;;;;;;30.73;19.40;;;-0.30;99.90;;;;;;5008727;28;20065;-50
2021/12/07 00:56:03;;;;;;;32.85;18.98;;;-0.30;99.90;;;;;;5008649;28;20088;-52
2021/12/07 00:58:30;;;;;;;34.38;20.17;;;-0.30;99.90;;;;;;5008382;28;20072;-51
2021/12/07 01:01:22;;;;;;;34.58;20.35;;;-0.30;99.90;;;;;;5008795;28;20405;-57
2021/12/07 01:03:49;;;;;;;31.80;19.42;;;-0.30;99.90;;;;;;5008022;28;20429;-57
2021/12/07 01:06:32;;;;;;;31.38;19.50;;;-0.30;99.90;;;;;;4992398;28;20686;-48
2021/12/07 01:25:34;;;;;;;33.75;19.85;;;-0.40;99.90;;;;;;4989116;28;20053;-50
2021/12/07 01:28:07;;;;;;;30.55;18.25;;;-0.40;99.90;;;;;;4988560;28;20064;-50
2021/12/07 01:30:50;;;;;;;36.63;20.40;;;-0.40;99.90;;;;;;4988825;28;20500;-56
2021/12/07 01:33:32;;;;;;;36.80;20.23;;;-0.40;99.90;;;;;;4988922;28;20111;-48
2021/12/07 01:38:37;;;;;;;36.90;20.38;;;-0.40;99.90;;;;;;5006454;28;20029;-54
2021/12/07 01:46:45;;;;;;;34.65;20.52;;;-0.40;99.90;;;;;;5007882;28;20371;-55
2021/12/07 02:00:15;;;;;;;34.45;20.38;;;-0.40;99.90;;;;;;5007147;28;20037;-54
2021/12/07 02:02:41;;;;;;;34.90;20.38;;;-0.40;99.90;;;;;;4994070;28;20034;-48
2021/12/07 02:05:08;;;;;;;32.47;19.38;;;-0.50;99.90;;;;;;5011219;28;20033;-52
2021/12/07 02:07:33;;;;;;;36.58;21.55;;;-0.40;99.90;;;;;;5011418;28;20112;-54
2021/12/07 02:10:05;;;;;;;37.08;21.23;;;-0.40;99.90;;;;;;5010573;28;20624;-48
2021/12/07 02:12:41;;;;;;;34.20;20.17;;;-0.40;99.90;;;;;;5011082;28;20537;-48
2021/12/07 02:15:09;;;;;;;37.35;21.38;;;-0.50;99.90;;;;;;5011750;28;20781;-47
2021/12/07 02:17:35;;;;;;;33.10;20.23;;;-0.50;99.90;;;;;;5011341;28;20034;-51
2021/12/07 02:20:01;;;;;;;32.13;19.55;;;-0.50;99.90;;;;;;5011563;28;20030;-49
2021/12/07 02:22:26;;;;;;;34.38;19.80;;;-0.50;99.90;;;;;;5010475;28;20022;-49
2021/12/07 02:24:52;;;;;;;37.85;21.27;;;-0.50;99.90;;;;;;5011089;28;20045;-52
2021/12/07 02:27:18;;;;;;;30.65;18.58;;;-0.50;99.90;;;;;;5011356;28;20092;-54
2021/12/07 02:29:43;;;;;;;35.00;20.33;;;-0.50;99.90;;;;;;5011017;28;20072;-51
2021/12/07 02:32:10;;;;;;;37.55;20.75;;;-0.50;99.90;;;;;;5011246;28;20521;-48
2021/12/07 02:34:41;;;;;;;33.10;20.08;;;-0.50;99.90;;;;;;5010866;28;20040;-53
2021/12/07 02:37:07;;;;;;;35.50;21.27;;;-0.50;99.90;;;;;;5011088;28;20025;-51
2021/12/07 02:39:35;;;;;;;33.75;19.30;;;-0.50;99.90;;;;;;5010600;28;20029;-50
2021/12/07 02:42:03;;;;;;;39.80;22.67;;;-0.50;99.90;;;;;;5010963;28;20046;-50
2021/12/07 02:44:29;;;;;;;37.67;21.05;;;-0.50;99.90;;;;;;5010907;28;20549;-52
2021/12/07 02:46:54;;;;;;;37.28;21.60;;;-0.50;99.90;;;;;;5009721;28;20038;-52
2021/12/07 02:49:21;;;;;;;33.55;19.65;;;-0.50;99.90;;;;;;5010371;28;20567;-49
2021/12/07 02:51:47;;;;;;;35.03;19.38;;;-0.50;99.90;;;;;;5009983;28;20029;-48
2021/12/07 02:54:12;;;;;;;40.03;21.83;;;-0.50;99.90;;;;;;5010857;28;20036;-48
2021/12/07 02:56:38;;;;;;;32.63;20.80;;;-0.50;99.90;;;;;;5010931;28;20524;-48
2021/12/07 02:59:04;;;;;;;35.63;21.35;;;-0.50;99.90;;;;;;5010349;28;20060;-51
2021/12/07 03:01:35;;;;;;;36.47;21.08;;;-0.50;99.90;;;;;;5008955;28;20172;-52
2021/12/07 03:06:38;;;;;;;35.85;21.30;;;-0.50;99.90;;;;;;5009362;28;20049;-48
2021/12/07 03:28:13;;;;;;;34.05;20.08;;;-0.40;99.90;;;;;;5009773;28;20053;-51
2021/12/07 03:30:39;;;;;;;35.58;19.05;;;-0.40;99.90;;;;;;5009000;28;20038;-53
2021/12/07 03:33:05;;;;;;;39.55;22.02;;;-0.40;99.90;;;;;;5008975;28;20061;-54
2021/12/07 03:35:31;;;;;;;42.95;22.35;;;-0.40;99.90;;;;;;5010413;28;20544;-50
2021/12/07 03:37:57;;;;;;;36.58;19.30;;;-0.40;99.90;;;;;;5009568;28;20141;-54
2021/12/07 03:40:23;;;;;;;37.28;21.65;;;-0.40;99.90;;;;;;5008590;28;20482;-54
2021/12/07 03:42:49;;;;;;;35.50;21.38;;;-0.40;99.90;;;;;;5010114;28;20069;-52
2021/12/07 03:45:15;;;;;;;35.97;20.80;;;-0.40;99.90;;;;;;5009752;28;20089;-48
2021/12/07 03:47:41;;;;;;;36.85;21.98;;;-0.40;99.90;;;;;;5009692;28;20034;-54
2021/12/07 03:50:09;;;;;;;38.90;22.65;;;-0.40;99.90;;;;;;5009827;28;20422;-54
2021/12/07 03:52:34;;;;;;;34.20;20.17;;;-0.30;99.90;;;;;;5008011;28;20029;-52
2021/12/07 03:55:00;;;;;;;40.50;21.38;;;-0.40;99.90;;;;;;5009598;28;20753;-53
2021/12/07 03:57:26;;;;;;;39.25;21.92;;;-0.30;99.90;;;;;;5009371;28;20025;-52
2021/12/07 03:59:51;;;;;;;38.95;22.90;;;-0.30;99.90;;;;;;5008025;28;20080;-48
2021/12/07 04:02:17;;;;;;;34.78;21.85;;;-0.40;99.90;;;;;;5009804;28;20030;-52
2021/12/07 04:04:43;;;;;;;36.38;21.63;;;-0.40;99.90;;;;;;5009372;28;20040;-48
2021/12/07 04:07:09;;;;;;;35.75;21.33;;;-0.30;99.90;;;;;;5009060;28;20037;-47
2021/12/07 04:09:34;;;;;;;33.42;19.45;;;-0.30;99.90;;;;;;5007911;28;20030;-52
2021/12/07 04:12:00;;;;;;;37.03;21.92;;;-0.30;99.90;;;;;;5008204;28;20030;-51
2021/12/07 04:14:26;;;;;;;36.30;20.10;;;-0.30;99.90;;;;;;5008844;28;20530;-54
2021/12/07 04:16:52;;;;;;;39.40;21.00;;;-0.30;99.90;;;;;;5008853;28;20105;-56
2021/12/07 04:19:18;;;;;;;36.58;21.88;;;-0.30;99.90;;;;;;4999079;28;20490;-51
2021/12/07 04:21:44;;;;;;;37.15;22.13;;;-0.30;99.90;;;;;;5009275;28;20033;-55
2021/12/07 04:24:09;;;;;;;38.85;22.40;;;-0.30;99.90;;;;;;5008842;28;20128;-51
2021/12/07 04:26:36;;;;;;;37.30;20.77;;;-0.30;99.90;;;;;;5009638;28;20040;-47
2021/12/07 04:29:05;;;;;;;38.10;22.92;;;-0.30;99.90;;;;;;4999185;28;20399;-51
2021/12/07 04:31:30;;;;;;;38.65;22.48;;;-0.20;99.90;;;;;;4989923;28;20514;-50
2021/12/07 04:33:56;;;;;;;42.72;22.42;;;-0.30;99.90;;;;;;4994176;28;20038;-54
2021/12/07 04:36:22;;;;;;;36.45;20.90;;;-0.20;99.90;;;;;;5009003;28;20026;-51
2021/12/07 04:38:48;;;;;;;40.60;23.67;;;-0.20;99.90;;;;;;5008689;28;20122;-49
2021/12/07 04:41:13;;;;;;;40.70;23.67;;;-0.20;99.90;;;;;;5008627;28;20105;-52
2021/12/07 04:43:39;;;;;;;39.42;22.98;;;-0.20;99.90;;;;;;4989345;28;20041;-53
2021/12/07 04:59:30;;;;;;;40.70;22.45;;;-0.20;99.90;;;;;;5008394;28;20040;-51
2021/12/07 05:01:56;;;;;;;37.70;20.17;;;-0.20;99.90;;;;;;5006483;28;20030;-54
2021/12/07 05:04:26;;;;;;;34.20;22.05;;;-0.20;99.90;;;;;;5008101;28;20565;-50
2021/12/07 05:06:57;;;;;;;38.42;22.55;;;-0.20;99.90;;;;;;5007922;28;20080;-51
2021/12/07 05:12:16;;;;;;;36.58;21.23;;;-0.20;99.90;;;;;;5008225;28;20088;-52
2021/12/07 05:14:36;;;;;;;36.58;21.70;;;-0.10;99.90;;;;;;5007686;28;20045;-51
2021/12/07 05:26:02;;;;;;;36.40;21.13;;;-0.10;99.90;;;;;;5007962;28;20045;-52
2021/12/07 05:39:13;;;;;;;34.75;21.63;;;-0.10;99.90;;;;;;5011709;28;20052;-54
2021/12/07 05:41:38;;;;;;;36.03;21.00;;;-0.10;99.90;;;;;;5011976;28;20026;-50
2021/12/07 05:44:07;;;;;;;37.42;21.70;;;-0.10;99.90;;;;;;5010980;28;20030;-55
2021/12/07 05:46:33;;;;;;;37.17;22.17;;;-0.10;99.90;;;;;;5011570;28;20029;-50
2021/12/07 05:48:58;;;;;;;39.60;22.15;;;-0.10;99.90;;;;;;5011398;28;20038;-55
2021/12/07 05:51:24;;;;;;;36.55;22.33;;;-0.10;99.90;;;;;;5011194;28;20079;-56
2021/12/07 05:53:49;;;;;;;34.20;21.15;;;-0.10;99.90;;;;;;5012240;28;20037;-52
2021/12/07 05:56:15;;;;;;;33.58;20.98;;;-0.10;99.90;;;;;;5009892;28;20022;-49
2021/12/07 05:58:41;;;;;;;36.75;21.55;;;-0.10;99.90;;;;;;5010977;28;20037;-55
2021/12/07 06:01:06;;;;;;;35.47;20.27;;;-0.10;99.90;;;;;;5010107;28;20049;-51
2021/12/07 06:03:33;;;;;;;35.22;20.60;;;-0.10;99.90;;;;;;5009190;28;20030;-51
2021/12/07 06:06:03;;;;;;;39.92;20.83;;;-0.10;99.90;;;;;;5009300;28;20572;-55
2021/12/07 06:08:29;;;;;;;34.53;20.95;;;-0.10;99.90;;;;;;5010492;28;20101;-57
2021/12/07 06:10:55;;;;;;;38.97;21.27;;;-0.10;99.90;;;;;;5009676;28;20525;-55
2021/12/07 06:13:20;;;;;;;40.53;21.70;;;-0.10;99.90;;;;;;5010664;28;20044;-50
2021/12/07 06:15:46;;;;;;;37.83;21.08;;;-0.10;99.90;;;;;;5011278;28;20034;-48
2021/12/07 06:18:13;;;;;;;34.75;19.98;;;-0.10;99.90;;;;;;5009622;28;20485;-54
2021/12/07 06:20:41;;;;;;;33.13;20.90;;;-0.10;99.90;;;;;;5010964;28;20385;-52
2021/12/07 06:23:07;;;;;;;36.03;20.63;;;-0.10;99.90;;;;;;5005879;28;20023;-50
2021/12/07 06:25:32;;;;;;;33.25;20.35;;;-0.10;99.90;;;;;;4991449;28;20535;-49
2021/12/07 06:27:58;;;;;;;33.63;19.92;;;-0.10;99.90;;;;;;5009396;28;20109;-53
2021/12/07 06:30:24;;;;;;;31.50;19.63;;;-0.10;99.90;;;;;;5011028;28;20481;-54
2021/12/07 06:32:49;;;;;;;34.78;20.20;;;-0.10;99.90;;;;;;5011083;28;20041;-47
2021/12/07 06:35:15;;;;;;;33.53;20.55;;;-0.10;99.90;;;;;;5011179;28;20034;-48
2021/12/07 06:37:41;;;;;;;31.88;19.98;;;-0.10;99.90;;;;;;5010966;28;20474;-52
2021/12/07 06:40:10;;;;;;;33.20;19.63;;;-0.10;99.90;;;;;;5010913;28;20456;-49
2021/12/07 06:42:38;;;;;;;38.92;20.02;;;-0.10;99.90;;;;;;5009250;28;20049;-54
2021/12/07 06:45:08;;;;;;;33.70;19.40;;;-0.10;99.90;;;;;;5010141;28;20083;-56
2021/12/07 06:47:34;;;;;;;36.03;21.35;;;-0.10;99.90;;;;;;5010470;28;20038;-54
2021/12/07 06:50:06;;;;;;;36.10;20.20;;;-0.10;99.90;;;;;;5009133;28;20037;-49
2021/12/07 06:52:32;;;;;;;34.08;20.88;;;-0.10;99.90;;;;;;5010669;28;20128;-49
2021/12/07 06:54:58;;;;;;;33.17;19.77;;;-0.10;99.90;;;;;;5009430;28;20462;-53
2021/12/07 06:57:24;;;;;;;34.60;19.83;;;-0.10;99.90;;;;;;5009757;28;20112;-55
2021/12/07 06:59:50;;;;;;;30.25;19.27;;;-0.10;99.90;;;;;;5008868;28;20018;-52
2021/12/07 07:02:16;;;;;;;36.17;21.55;;;-0.10;99.90;;;;;;5008181;28;20401;-51
2021/12/07 07:04:41;;;;;;;32.25;19.58;;;-0.10;99.90;;;;;;5010305;28;20536;-50
2021/12/07 07:07:07;;;;;;;30.13;18.33;;;-0.10;99.90;;;;;;5010324;28;20044;-51
2021/12/07 07:09:32;;;;;;;32.90;19.25;;;-0.10;99.90;;;;;;5009851;28;20032;-53
2021/12/07 07:11:58;;;;;;;34.08;20.75;;;-0.10;99.90;;;;;;5010326;28;20108;-57
2021/12/07 07:14:24;;;;;;;37.33;20.83;;;-0.10;99.90;;;;;;5009996;28;20037;-47
2021/12/07 07:16:49;;;;;;;31.27;18.42;;;-0.10;99.90;;;;;;5010099;28;20029;-53
2021/12/07 07:19:15;;;;;;;35.58;19.23;;;-0.10;99.90;;;;;;5009789;28;20033;-56
2021/12/07 07:21:40;;;;;;;31.52;18.65;;;-0.10;99.90;;;;;;5008322;28;20026;-53
2021/12/07 07:24:06;;;;;;;38.35;20.38;;;-0.10;99.90;;;;;;5010400;28;20120;-51
2021/12/07 07:26:32;;;;;;;30.92;17.60;;;0.00;99.90;;;;;;5010431;28;20076;-51
2021/12/07 07:28:58;;;;;;;34.72;18.92;;;0.00;99.90;;;;;;5008991;28;20418;-52
2021/12/07 07:31:24;;;;;;;31.73;18.85;;;-0.10;99.90;;;;;;5009580;28;20041;-54
2021/12/07 07:33:49;;;;;;;32.33;20.02;;;-0.10;99.90;;;;;;5009481;28;20033;-55
2021/12/07 07:36:15;;;;;;;35.38;20.02;;;0.00;99.90;;;;;;5009409;28;20127;-51
2021/12/07 07:38:42;;;;;;;34.50;19.85;;;-0.10;99.90;;;;;;5009528;28;20026;-53
2021/12/07 07:41:07;;;;;;;34.47;19.90;;;-0.10;99.90;;;;;;5009763;28;20218;-51
2021/12/07 07:43:33;;;;;;;36.35;19.17;;;-0.10;99.90;;;;;;5009599;28;20529;-54
2021/12/07 07:45:59;;;;;;;34.95;19.85;;;0.00;99.90;;;;;;5009892;28;20030;-50
2021/12/07 07:48:25;;;;;;;34.95;19.75;;;0.00;99.90;;;;;;5009404;28;20040;-52
2021/12/07 07:50:51;;;;;;;34.60;20.23;;;-0.10;99.90;;;;;;5010007;28;20030;-52
2021/12/07 07:53:17;;;;;;;32.75;19.42;;;0.00;99.90;;;;;;5009371;28;20037;-51
2021/12/07 07:55:43;;;;;;;34.55;19.70;;;0.00;99.90;;;;;;5009119;28;20050;-50
2021/12/07 07:58:10;;;;;;;41.08;21.20;;;0.00;99.90;;;;;;5007198;28;20065;-53
2021/12/07 08:00:36;;;;;;;34.38;20.38;;;0.00;99.90;;;;;;4989781;28;20105;-48
2021/12/07 08:03:05;;;;;;;33.78;20.58;;;0.00;99.90;;;;;;4989684;28;20023;-56
2021/12/07 08:05:31;;;;;;;35.60;20.75;;;0.00;99.90;;;;;;4989939;28;20037;-55
2021/12/07 08:07:57;;;;;;;32.88;20.10;;;0.00;99.90;;;;;;4989730;28;20062;-53
2021/12/07 08:10:28;;;;;;;35.90;20.40;;;0.00;99.90;;;;;;5000281;28;20057;-55
2021/12/07 08:13:03;;;;;;;34.40;20.80;;;-0.10;99.90;;;;;;5009056;28;20318;-53
2021/12/07 08:15:30;;;;;;;29.55;19.42;;;0.00;99.90;;;;;;5008778;28;20033;-55
2021/12/07 08:17:57;;;;;;;36.10;20.58;;;0.00;99.90;;;;;;5008929;28;20510;-52
2021/12/07 08:20:23;;;;;;;33.35;20.05;;;-0.10;99.90;;;;;;5007920;28;20729;-56
2021/12/07 08:22:49;;;;;;;40.20;22.33;;;0.00;99.90;;;;;;5008249;28;20026;-54
2021/12/07 08:25:15;;;;;;;38.38;20.92;;;0.00;99.90;;;;;;5007899;28;20104;-54
2021/12/07 08:27:41;;;;;;;36.65;21.15;;;0.00;99.90;;;;;;5008035;28;20419;-49
2021/12/07 08:30:09;;;;;;;35.05;20.60;;;0.00;99.90;;;;;;5009178;28;20028;-52
2021/12/07 08:32:35;;;;;;;33.80;20.52;;;0.00;99.90;;;;;;5009002;28;20589;-54
2021/12/07 08:35:01;;;;;;;40.30;21.02;;;0.00;99.90;;;;;;5008227;28;20498;-51
2021/12/07 08:37:26;;;;;;;35.00;20.45;;;0.00;99.90;;;;;;5008063;28;20053;-56
2021/12/07 08:39:52;;;;;;;34.20;19.85;;;0.10;99.90;;;;;;5008697;28;20072;-55
2021/12/07 08:42:19;;;;;;;38.88;21.23;;;0.00;99.90;;;;;;5008759;28;20050;-57
2021/12/07 08:44:45;;;;;;;35.55;21.20;;;0.00;99.90;;;;;;5008769;28;20036;-53
2021/12/07 08:47:11;;;;;;;33.75;20.30;;;0.00;99.90;;;;;;5008469;28;20029;-56
2021/12/07 08:49:37;;;;;;;35.10;21.02;;;0.00;99.90;;;;;;5008203;28;20080;-52
2021/12/07 08:52:03;;;;;;;39.13;20.73;;;0.00;99.90;;;;;;5008596;28;20585;-53
2021/12/07 08:59:43;;;;;;;35.83;20.25;;;0.00;99.90;;;;;;5008382;28;20032;-53
2021/12/07 09:02:11;;;;;;;35.75;21.73;;;0.00;99.90;;;;;;5008000;28;20025;-53
2021/12/07 09:04:37;;;;;;;33.53;21.15;;;0.10;99.90;;;;;;5008788;28;20097;-55
2021/12/07 09:07:04;;;;;;;40.40;21.75;;;0.10;99.90;;;;;;5008514;28;20463;-58
2021/12/07 09:09:31;;;;;;;41.08;21.67;;;0.10;99.90;;;;;;5008146;28;20032;-58
2021/12/07 09:11:56;;;;;;;39.53;22.40;;;0.20;99.90;;;;;;5009031;28;20033;-55
2021/12/07 09:14:23;;;;;;;39.38;21.88;;;0.20;99.90;;;;;;4992588;28;20026;-54
2021/12/07 09:16:49;;;;;;;39.85;22.83;;;0.20;99.90;;;;;;4989779;28;20022;-56
2021/12/07 09:19:15;;;;;;;36.40;21.42;;;0.20;99.90;;;;;;4997471;28;20076;-50
2021/12/07 09:21:41;;;;;;;37.83;22.88;;;0.20;99.90;;;;;;4994274;28;20034;-57
2021/12/07 09:24:10;;;;;;;37.97;21.27;;;0.20;99.90;;;;;;4996408;28;20487;-58
2021/12/07 09:26:36;;;;;;;33.92;20.52;;;0.20;99.90;;;;;;5007014;28;20088;-51
2021/12/07 09:29:04;;;;;;;32.53;20.40;;;0.20;99.90;;;;;;5008439;28;20022;-55
2021/12/07 09:31:29;;;;;;;37.60;21.30;;;0.30;99.90;;;;;;5008383;28;20037;-55
2021/12/07 09:33:55;;;;;;;35.75;19.85;;;0.30;99.90;;;;;;5007963;28;20442;-54
2021/12/07 09:36:21;;;;;;;32.88;20.83;;;0.30;99.90;;;;;;5008397;28;20030;-52
2021/12/07 09:38:47;;;;;;;34.15;19.90;;;0.40;99.90;;;;;;5008097;28;20172;-50
2021/12/07 09:41:14;;;;;;;38.05;22.00;;;0.40;99.90;;;;;;5008409;28;20489;-51
2021/12/07 09:43:41;;;;;;;35.28;20.50;;;0.40;99.90;;;;;;5007660;28;20030;-52
2021/12/07 09:46:09;;;;;;;38.40;22.75;;;0.40;99.90;;;;;;5008120;28;20030;-52
2021/12/07 09:48:36;;;;;;;39.83;21.25;;;0.40;99.90;;;;;;5007794;28;20030;-51
2021/12/07 09:51:04;;;;;;;32.38;19.85;;;0.50;99.90;;;;;;5007868;28;20025;-53
2021/12/07 09:53:30;;;;;;;36.08;22.08;;;0.50;99.90;;;;;;5007697;28;20034;-55
2021/12/07 09:55:57;;;;;;;36.47;20.08;;;0.50;99.90;;;;;;5007945;28;20032;-56
2021/12/07 09:58:23;;;;;;;34.83;21.50;;;0.50;99.90;;;;;;5007307;28;20478;-56
2021/12/07 10:00:50;;;;;;;35.38;20.30;;;0.50;99.90;;;;;;5007850;28;20041;-54
2021/12/07 10:03:16;;;;;;;33.95;20.65;;;0.50;99.90;;;;;;5007615;28;20026;-57
2021/12/07 10:05:43;;;;;;;39.03;21.23;;;0.50;99.90;;;;;;5007757;28;20515;-55
2021/12/07 10:08:10;;;;;;;36.53;20.85;;;0.50;99.90;;;;;;5007282;28;20037;-54
2021/12/07 10:10:45;;;;;;;35.33;19.88;;;0.50;99.90;;;;;;5007721;28;20026;-52
2021/12/07 10:13:12;;;;;;;30.63;19.48;;;0.50;99.90;;;;;;5007934;28;20084;-54
2021/12/07 10:15:39;;;;;;;35.10;20.83;;;0.50;99.90;;;;;;5006078;28;20034;-52
2021/12/07 10:18:20;;;;;;;38.35;21.85;;;0.50;99.90;;;;;;5006201;28;20036;-55
2021/12/07 10:20:49;;;;;;;34.63;19.45;;;0.50;99.90;;;;;;5008696;28;20111;-51
2021/12/07 10:23:15;;;;;;;34.80;20.50;;;0.60;99.90;;;;;;5011212;28;20405;-58
2021/12/07 10:25:54;;;;;;;34.20;20.50;;;0.50;99.90;;;;;;5011109;28;20091;-54
2021/12/07 10:28:56;;;;;;;32.38;19.20;;;0.60;99.90;;;;;;5035717;23;20405;-51
2021/12/07 10:31:37;;;;;;;33.30;19.85;;;0.60;99.90;;;;;;4978439;28;20112;-52
2021/12/07 10:34:14;;;;;;;34.75;19.98;;;0.60;99.90;;;;;;4976468;28;20042;-52
2021/12/07 10:36:53;;;;;;;36.50;19.08;;;0.60;99.90;;;;;;4971678;28;20542;-53
2021/12/07 10:39:21;;;;;;;37.03;20.02;;;0.60;99.90;;;;;;4971606;28;20129;-51
2021/12/07 10:41:49;;;;;;;31.15;20.67;;;0.70;99.90;;;;;;4971409;28;20033;-53
2021/12/07 10:44:19;;;;;;;35.90;21.60;;;0.70;99.90;;;;;;4971519;28;20027;-53
2021/12/07 10:46:56;;;;;;;36.92;21.00;;;0.70;99.90;;;;;;4972052;28;20026;-52
2021/12/07 10:49:51;;;;;;;32.85;20.98;;;0.70;99.90;;;;;;4972030;28;20040;-53
2021/12/07 10:52:28;;;;;;;31.80;18.55;;;0.70;99.90;;;;;;4991308;28;20494;-54
2021/12/07 10:54:59;;;;;;;35.50;19.70;;;0.70;99.90;;;;;;4970653;28;20049;-54
2021/12/07 10:57:29;;;;;;;33.58;18.05;;;0.70;99.90;;;;;;4971760;28;20026;-51
2021/12/07 11:00:22;;;;;;;34.03;18.88;;;0.80;99.90;;;;;;4970006;28;20027;-54
2021/12/07 11:02:57;;;;;;;30.45;18.27;;;0.80;99.90;;;;;;4969713;28;20030;-53
2021/12/07 11:05:34;;;;;;;29.40;18.70;;;0.80;99.90;;;;;;4971310;28;20035;-55
2021/12/07 11:08:01;;;;;;;29.63;19.25;;;0.80;99.90;;;;;;4971287;28;20042;-55
2021/12/07 11:10:32;;;;;;;32.90;19.42;;;0.90;99.90;;;;;;4990768;28;20030;-55
2021/12/07 11:15:35;;;;;;;32.92;20.10;;;0.90;99.90;;;;;;4989361;28;20034;-53
2021/12/07 11:18:08;;;;;;;34.05;18.85;;;0.90;99.90;;;;;;4983207;28;20027;-52
2021/12/07 11:20:36;;;;;;;28.85;18.58;;;0.90;99.90;;;;;;4982945;28;20027;-56
2021/12/07 11:23:18;;;;;;;28.42;18.15;;;0.90;99.90;;;;;;4990944;28;20525;-55
2021/12/07 11:31:27;;;;;;;32.05;19.15;;;1.10;99.90;;;;;;4973490;28;20041;-55
2021/12/07 11:34:03;;;;;;;35.03;20.45;;;1.10;99.90;;;;;;4990007;28;20505;-52
2021/12/07 11:36:33;;;;;;;29.20;17.83;;;1.20;99.90;;;;;;4974227;28;20041;-54
2021/12/07 11:39:00;;;;;;;31.33;18.98;;;1.10;99.90;;;;;;4970543;28;20029;-53
2021/12/07 11:41:32;;;;;;;33.40;19.15;;;1.10;99.90;;;;;;4971316;28;20027;-52
2021/12/07 11:44:08;;;;;;;29.83;18.77;;;1.20;99.90;;;;;;4970732;28;20403;-54
2021/12/07 11:46:36;;;;;;;30.30;18.98;;;1.20;99.90;;;;;;4971057;28;20106;-53
2021/12/07 11:49:04;;;;;;;36.10;19.73;;;1.20;99.90;;;;;;4970611;28;20062;-51
2021/12/07 11:51:30;;;;;;;36.33;21.20;;;1.20;99.90;;;;;;4970766;28;20027;-54
2021/12/07 11:53:55;;;;;;;33.88;20.52;;;1.20;99.90;;;;;;4970670;28;20027;-53
2021/12/07 11:56:21;;;;;;;32.95;19.30;;;1.30;99.90;;;;;;4970686;28;20031;-53
2021/12/07 11:58:46;;;;;;;31.88;19.45;;;1.20;99.90;;;;;;4970698;28;20027;-52
2021/12/07 12:01:12;;;;;;;36.10;20.63;;;1.20;99.90;;;;;;4970633;28;20054;-55
2021/12/07 12:03:38;;;;;;;37.00;20.73;;;1.30;99.90;;;;;;4970720;28;20042;-52
2021/12/07 12:06:05;;;;;;;31.10;19.15;;;1.30;99.90;;;;;;4970898;28;20035;-56
2021/12/07 12:08:31;;;;;;;33.10;20.05;;;1.30;99.90;;;;;;4969807;28;20026;-52
2021/12/07 12:11:03;;;;;;;30.73;20.30;;;1.30;99.90;;;;;;4970833;28;20027;-54
2021/12/07 12:13:43;;;;;;;36.63;20.63;;;1.30;99.90;;;;;;4969396;28;20058;-52
2021/12/07 12:16:28;;;;;;;32.78;20.13;;;1.30;99.90;;;;;;4970544;28;20035;-57
2021/12/07 12:19:17;;;;;;;34.00;20.17;;;1.30;99.90;;;;;;4970620;28;20396;-58
2021/12/07 12:21:55;;;;;;;35.22;19.58;;;1.30;99.90;;;;;;4982763;28;20022;-55
2021/12/07 12:24:32;;;;;;;32.05;18.23;;;1.30;99.90;;;;;;4969349;28;20054;-53
2021/12/07 12:27:22;;;;;;;33.25;19.70;;;1.30;99.90;;;;;;4970633;28;20027;-57
2021/12/07 12:29:52;;;;;;;32.75;19.67;;;1.30;99.90;;;;;;4950200;28;20155;-54
2021/12/07 12:32:53;;;;;;;34.97;20.08;;;1.30;99.90;;;;;;4966817;28;20027;-57
2021/12/07 12:35:34;;;;;;;31.48;18.58;;;1.30;99.90;;;;;;4975825;28;20045;-54
2021/12/07 12:38:00;;;;;;;30.50;18.77;;;1.30;99.90;;;;;;4969736;28;20023;-55
2021/12/07 12:40:32;;;;;;;33.88;21.63;;;1.30;99.90;;;;;;4970039;28;20022;-54
2021/12/07 12:43:01;;;;;;;36.58;19.80;;;1.30;99.90;;;;;;4970458;28;20114;-57
2021/12/07 12:45:33;;;;;;;34.72;21.25;;;1.30;99.90;;;;;;4984023;28;20021;-55
2021/12/07 12:48:12;;;;;;;29.27;19.63;;;1.40;99.90;;;;;;4970127;28;20054;-55
2021/12/07 12:50:37;;;;;;;32.30;20.75;;;1.40;99.90;;;;;;4970356;28;20035;-58
2021/12/07 12:53:08;;;;;;;34.22;20.65;;;1.40;99.90;;;;;;4970244;28;20038;-53
2021/12/07 12:55:41;;;;;;;33.00;19.92;;;1.40;99.90;;;;;;4970449;28;20430;-51
2021/12/07 12:58:20;;;;;;;31.98;20.08;;;1.40;99.90;;;;;;4970030;28;20395;-56
2021/12/07 13:01:03;;;;;;;40.33;21.30;;;1.40;99.90;;;;;;4970519;28;20023;-56
2021/12/07 13:03:45;;;;;;;31.42;19.10;;;1.40;99.90;;;;;;4970206;28;20026;-56
2021/12/07 13:06:18;;;;;;;33.30;20.85;;;1.40;99.90;;;;;;4969820;28;20031;-55
2021/12/07 13:09:00;;;;;;;34.88;20.95;;;1.40;99.90;;;;;;4986588;28;20054;-53
2021/12/07 13:11:34;;;;;;;34.05;20.17;;;1.40;99.90;;;;;;4969747;28;20428;-55
2021/12/07 13:14:01;;;;;;;37.13;20.83;;;1.40;99.90;;;;;;4969648;28;20035;-54
2021/12/07 13:16:27;;;;;;;35.88;21.63;;;1.40;99.90;;;;;;4970335;28;20142;-53
2021/12/07 13:19:01;;;;;;;34.05;19.40;;;1.40;99.90;;;;;;4969984;28;20046;-55
2021/12/07 13:21:29;;;;;;;38.80;21.90;;;1.40;99.90;;;;;;4969167;28;20760;-56
2021/12/07 13:24:56;;;;;;;35.58;21.75;;;1.40;99.90;;;;;;4969784;28;20030;-55
2021/12/07 13:27:22;;;;;;;35.15;20.70;;;1.40;99.90;;;;;;4957099;28;20530;-54
2021/12/07 13:29:52;;;;;;;37.60;20.73;;;1.30;99.90;;;;;;4967191;28;20121;-57
2021/12/07 13:32:18;;;;;;;38.65;22.27;;;1.40;99.90;;;;;;4969458;28;20035;-56
2021/12/07 13:34:43;;;;;;;33.72;20.65;;;1.40;99.90;;;;;;4968899;28;20403;-58
2021/12/07 13:37:12;;;;;;;32.67;18.83;;;1.30;99.90;;;;;;4968777;28;20026;-57
2021/12/07 13:39:47;;;;;;;31.27;20.08;;;1.30;99.90;;;;;;4969039;28;20495;-58
2021/12/07 13:42:16;;;;;;;34.42;20.33;;;1.30;99.90;;;;;;4969155;28;20030;-58
2021/12/07 13:44:58;;;;;;;38.30;22.00;;;1.30;99.90;;;;;;4968282;28;20027;-57
2021/12/07 13:47:30;;;;;;;36.92;20.63;;;1.30;99.90;;;;;;4969299;28;20534;-58
2021/12/07 13:50:09;;;;;;;40.00;21.40;;;1.30;99.90;;;;;;4968926;28;20031;-57
2021/12/07 13:52:38;;;;;;;30.20;18.38;;;1.20;99.90;;;;;;4968418;28;20034;-55
2021/12/07 13:55:09;;;;;;;36.38;21.10;;;1.20;99.90;;;;;;4982889;28;20113;-57
2021/12/07 13:57:39;;;;;;;41.22;22.88;;;1.20;99.90;;;;;;4972036;28;20050;-57
2021/12/07 14:00:13;;;;;;;34.92;20.83;;;1.20;99.90;;;;;;4986678;28;20103;-56
2021/12/07 14:02:49;;;;;;;38.45;21.20;;;1.20;99.90;;;;;;4972789;28;20109;-57
2021/12/07 14:05:23;;;;;;;37.20;22.05;;;1.10;99.90;;;;;;4973293;28;20534;-57
2021/12/07 14:07:51;;;;;;;33.63;22.63;;;1.10;99.90;;;;;;4971509;28;20038;-54
2021/12/07 14:10:24;;;;;;;38.65;20.95;;;1.20;99.90;;;;;;4971971;28;20030;-54
2021/12/07 14:12:53;;;;;;;35.22;20.20;;;1.10;99.90;;;;;;4969680;28;20030;-56
2021/12/07 14:15:25;;;;;;;46.03;22.88;;;1.20;99.90;;;;;;4969605;28;20395;-57
2021/12/07 14:17:55;;;;;;;37.58;22.10;;;1.20;99.90;;;;;;4972096;28;20100;-57
2021/12/07 14:20:38;;;;;;;36.33;20.90;;;1.10;99.90;;;;;;4987179;28;20246;-58
2021/12/07 14:23:30;;;;;;;36.10;21.77;;;1.10;99.90;;;;;;4972305;28;20081;-57
2021/12/07 14:26:01;;;;;;;35.50;21.13;;;1.20;99.90;;;;;;4971880;28;20069;-57
2021/12/07 14:28:30;;;;;;;32.03;19.90;;;1.10;99.90;;;;;;4971362;28;20068;-56
2021/12/07 14:31:02;;;;;;;39.33;21.45;;;1.10;99.90;;;;;;4971830;28;20045;-57
2021/12/07 14:33:27;;;;;;;42.30;22.50;;;1.10;99.90;;;;;;4971282;28;20568;-58